Dai15hakuryomaru — JD2439 — position and weather

sailwx.info

Track history (hours):
 
Tides and Currents Weather Stations Pressure Air Temp Water Temp Dewpoint Dewpoint Depression Visibility Wind Speed Wind Dir Waves Ship Positions

Dai15hakuryomaru

Last reported at 2014-Jul-31 11:08 UTC. Time now 2014-Jul-31 19:40 UTC.
Position N 34°50' E 139°10'.

Length 80 m; draft 5.4 m.

Type: Tanker. MMSI: 431000243.

Date/timePositionNaut miles runAvg speedWind from/ knotsBaromVisibWave heightAir tempDewpointWater temp
2014-Jul-31 11:08N 34°50' E 139°10'712.7
2014-Jul-31 10:33N 34°56' E 139°15'1312.9
2014-Jul-31 09:32N 35°02' E 139°30'1312.9
2014-Jul-31 08:33N 35°08' E 139°43'1111.2
2014-Jul-31 07:33N 35°20' E 139°43'1211.6
2014-Jul-31 06:32N 35°30' E 139°51'1212.0
2014-Jul-31 05:33N 35°39' E 139°59'1 1.5
2014-Jul-31 04:33N 35°41' E 139°59'0 0.0
2014-Jul-31 03:33N 35°41' E 139°59'0 0.0
2014-Jul-31 02:33N 35°41' E 139°59'2 1.6
2014-Jul-31 01:33N 35°39' E 139°59'1313.0
2014-Jul-31 00:33N 35°28' E 139°51'1211.6
2014-Jul-30 23:33N 35°17' E 139°45'1212.5
2014-Jul-30 22:33N 35°05' E 139°45'18 7.7
2014-Jul-30 20:13N 34°59' E 140°06'54 2.5
2014-Jul-29 22:27N 35°38' E 140°53'1212.3
2014-Jul-29 21:29N 35°28' E 140°44'1312.4
2014-Jul-29 20:27N 35°18' E 140°35'1714.1
2014-Jul-29 19:14N 35°05' E 140°21'913.7
2014-Jul-29 18:33N 34°60' E 140°12'1312.9
2014-Jul-29 17:32N 34°53' E 139°58'1210.1
2014-Jul-29 16:23N 34°56' E 139°44'1011.6
2014-Jul-29 15:33N 35°05' E 139°43'1212.2
2014-Jul-29 14:33N 35°17' E 139°45'1010.4
2014-Jul-29 13:33N 35°28' E 139°48'1111.3
2014-Jul-29 12:33N 35°30' E 140°02'0 0.2
2014-Jul-29 11:33N 35°30' E 140°02'0 0.0
2014-Jul-29 10:33N 35°30' E 140°02'0 0.0
2014-Jul-29 09:33N 35°30' E 140°02'0 0.0
2014-Jul-29 08:33N 35°30' E 140°02'0 0.0
2014-Jul-29 07:33N 35°30' E 140°02'1 1.0
2014-Jul-29 06:33N 35°30' E 140°01'0 0.0
2014-Jul-29 05:33N 35°30' E 140°01'3 3.2
2014-Jul-29 04:33N 35°30' E 139°57'9 9.4
2014-Jul-29 03:33N 35°30' E 139°45'0 0.0
2014-Jul-29 02:33N 35°30' E 139°45'0 0.0
2014-Jul-29 01:34N 35°30' E 139°45'3 3.2
2014-Jul-29 00:34N 35°29' E 139°49'0 0.1
2014-Jul-28 23:34N 35°29' E 139°49'0 0.0
2014-Jul-28 22:33N 35°29' E 139°49'0 0.0
2014-Jul-28 21:33N 35°29' E 139°49'0 0.0
2014-Jul-28 20:34N 35°29' E 139°49'0 0.0
2014-Jul-28 19:34N 35°29' E 139°49'1111.2
2014-Jul-28 18:33N 35°18' E 139°45'1211.8
2014-Jul-28 17:34N 35°06' E 139°46'1212.3
2014-Jul-28 16:33N 34°58' E 139°34'1313.0
2014-Jul-28 15:34N 34°51' E 139°21'  
2014-Jul-26 06:11N 35°24' E 140°38'812.2
2014-Jul-26 05:33N 35°30' E 140°44'25 4.0
2014-Jul-25 23:21N 35°55' E 140°41'2 0.9
2014-Jul-25 21:13N 35°57' E 140°42'0 0.0
2014-Jul-25 20:30N 35°57' E 140°42'0 0.0
2014-Jul-25 18:32N 35°57' E 140°42'0 0.0
2014-Jul-25 17:33N 35°57' E 140°42'0 0.0
2014-Jul-25 16:32N 35°57' E 140°42'0 0.0
2014-Jul-25 15:32N 35°57' E 140°42'2 0.5
2014-Jul-25 10:33N 35°55' E 140°41'0 0.1
2014-Jul-25 09:33N 35°55' E 140°41'0 0.0
2014-Jul-25 08:31N 35°55' E 140°41'0 0.0
2014-Jul-25 07:28N 35°55' E 140°41'0 0.0
2014-Jul-25 04:24N 35°55' E 140°41'2 2.5
2014-Jul-25 03:30N 35°57' E 140°42'0 0.0
2014-Jul-25 02:33N 35°57' E 140°42'0 0.0
2014-Jul-25 01:19N 35°57' E 140°42'0 0.0
2014-Jul-25 00:17N 35°57' E 140°42'0 0.0
2014-Jul-24 23:33N 35°57' E 140°42'0 0.0
2014-Jul-24 22:33N 35°57' E 140°42'0 0.0
2014-Jul-24 21:33N 35°57' E 140°42'0 0.0
2014-Jul-24 20:33N 35°57' E 140°42'0 0.0
2014-Jul-24 19:33N 35°57' E 140°42'0 0.0
2014-Jul-24 18:33N 35°57' E 140°42'0 0.0
2014-Jul-24 17:33N 35°57' E 140°42'0 0.0
2014-Jul-24 16:33N 35°57' E 140°42'0 0.0
2014-Jul-24 15:33N 35°57' E 140°42'0 0.0
2014-Jul-24 14:33N 35°57' E 140°42'5 5.1
2014-Jul-24 13:32N 35°54' E 140°47'1512.8
2014-Jul-24 12:21N 35°40' E 140°54'1013.1
2014-Jul-24 11:33N 35°31' E 140°47'1612.9
2014-Jul-24 10:17N 35°18' E 140°35'1413.3
2014-Jul-24 09:13N 35°07' E 140°24'1015.4
2014-Jul-24 08:33N 35°01' E 140°14'1614.5
2014-Jul-24 07:28N 34°53' E 139°58'1313.9
2014-Jul-24 06:32N 34°50' E 139°42'20 0.8
2014-Jul-23 06:12N 34°58' E 139°20'711.8
2014-Jul-23 05:34N 35°02' E 139°28'1212.4
2014-Jul-23 04:34N 35°07' E 139°42'1110.8
2014-Jul-23 03:34N 35°18' E 139°44'1110.5
2014-Jul-23 02:34N 35°28' E 139°49'1110.9
2014-Jul-23 01:33N 35°30' E 140°02'0 0.1
2014-Jul-23 00:33N 35°30' E 140°02'0 0.0
2014-Jul-22 23:33N 35°30' E 140°02'3 2.8
2014-Jul-22 22:34N 35°31' E 139°59'0 0.0
2014-Jul-22 21:33N 35°31' E 139°59'0 0.0
2014-Jul-22 20:34N 35°31' E 139°59'0 0.0
2014-Jul-22 19:34N 35°31' E 139°59'0 0.0
2014-Jul-22 18:34N 35°31' E 139°59'0 0.0
2014-Jul-22 17:34N 35°31' E 139°59'0 0.0
2014-Jul-22 16:33N 35°31' E 139°59'0 0.0
2014-Jul-22 15:34N 35°31' E 139°59'0 0.0
2014-Jul-22 14:34N 35°31' E 139°59'8 8.0
2014-Jul-22 13:33N 35°27' E 139°50'1211.9
2014-Jul-22 12:33N 35°16' E 139°47'1313.2
2014-Jul-22 11:33N 35°03' E 139°42'1515.3
2014-Jul-22 10:33N 34°54' E 139°27'40 7.4
2014-Jul-22 05:07N 35°09' E 138°42'  
Track history (hours):
 
Tides and Currents Weather Stations Pressure Air Temp Water Temp Dewpoint Dewpoint Depression Visibility Wind Speed Wind Dir Waves Ship Positions

Dai15hakuryomaru

Last reported at 2014-Jul-31 11:08 UTC. Time now 2014-Jul-31 19:40 UTC.
Position N 34°50' E 139°10'.

Length 80 m; draft 5.4 m.

Type: Tanker. MMSI: 431000243.

Date/timePositionNaut miles runAvg speedWind from/ knotsBaromVisibWave heightAir tempDewpointWater temp
2014-Jul-31 11:08N 34°50' E 139°10'712.7
2014-Jul-31 10:33N 34°56' E 139°15'1312.9
2014-Jul-31 09:32N 35°02' E 139°30'1312.9
2014-Jul-31 08:33N 35°08' E 139°43'1111.2
2014-Jul-31 07:33N 35°20' E 139°43'1211.6
2014-Jul-31 06:32N 35°30' E 139°51'1212.0
2014-Jul-31 05:33N 35°39' E 139°59'1 1.5
2014-Jul-31 04:33N 35°41' E 139°59'0 0.0
2014-Jul-31 03:33N 35°41' E 139°59'0 0.0
2014-Jul-31 02:33N 35°41' E 139°59'2 1.6
2014-Jul-31 01:33N 35°39' E 139°59'1313.0
2014-Jul-31 00:33N 35°28' E 139°51'1211.6
2014-Jul-30 23:33N 35°17' E 139°45'1212.5
2014-Jul-30 22:33N 35°05' E 139°45'18 7.7
2014-Jul-30 20:13N 34°59' E 140°06'54 2.5
2014-Jul-29 22:27N 35°38' E 140°53'1212.3
2014-Jul-29 21:29N 35°28' E 140°44'1312.4
2014-Jul-29 20:27N 35°18' E 140°35'1714.1
2014-Jul-29 19:14N 35°05' E 140°21'913.7
2014-Jul-29 18:33N 34°60' E 140°12'1312.9
2014-Jul-29 17:32N 34°53' E 139°58'1210.1
2014-Jul-29 16:23N 34°56' E 139°44'1011.6
2014-Jul-29 15:33N 35°05' E 139°43'1212.2
2014-Jul-29 14:33N 35°17' E 139°45'1010.4
2014-Jul-29 13:33N 35°28' E 139°48'1111.3
2014-Jul-29 12:33N 35°30' E 140°02'0 0.2
2014-Jul-29 11:33N 35°30' E 140°02'0 0.0
2014-Jul-29 10:33N 35°30' E 140°02'0 0.0
2014-Jul-29 09:33N 35°30' E 140°02'0 0.0
2014-Jul-29 08:33N 35°30' E 140°02'0 0.0
2014-Jul-29 07:33N 35°30' E 140°02'1 1.0
2014-Jul-29 06:33N 35°30' E 140°01'0 0.0
2014-Jul-29 05:33N 35°30' E 140°01'3 3.2
2014-Jul-29 04:33N 35°30' E 139°57'9 9.4
2014-Jul-29 03:33N 35°30' E 139°45'0 0.0
2014-Jul-29 02:33N 35°30' E 139°45'0 0.0
2014-Jul-29 01:34N 35°30' E 139°45'3 3.2
2014-Jul-29 00:34N 35°29' E 139°49'0 0.1
2014-Jul-28 23:34N 35°29' E 139°49'0 0.0
2014-Jul-28 22:33N 35°29' E 139°49'0 0.0
2014-Jul-28 21:33N 35°29' E 139°49'0 0.0
2014-Jul-28 20:34N 35°29' E 139°49'0 0.0
2014-Jul-28 19:34N 35°29' E 139°49'1111.2
2014-Jul-28 18:33N 35°18' E 139°45'1211.8
2014-Jul-28 17:34N 35°06' E 139°46'1212.3
2014-Jul-28 16:33N 34°58' E 139°34'1313.0
2014-Jul-28 15:34N 34°51' E 139°21'  
2014-Jul-26 06:11N 35°24' E 140°38'812.2
2014-Jul-26 05:33N 35°30' E 140°44'25 4.0
2014-Jul-25 23:21N 35°55' E 140°41'2 0.9
2014-Jul-25 21:13N 35°57' E 140°42'0 0.0
2014-Jul-25 20:30N 35°57' E 140°42'0 0.0
2014-Jul-25 18:32N 35°57' E 140°42'0 0.0
2014-Jul-25 17:33N 35°57' E 140°42'0 0.0
2014-Jul-25 16:32N 35°57' E 140°42'0 0.0
2014-Jul-25 15:32N 35°57' E 140°42'2 0.5
2014-Jul-25 10:33N 35°55' E 140°41'0 0.1
2014-Jul-25 09:33N 35°55' E 140°41'0 0.0
2014-Jul-25 08:31N 35°55' E 140°41'0 0.0
2014-Jul-25 07:28N 35°55' E 140°41'0 0.0
2014-Jul-25 04:24N 35°55' E 140°41'2 2.5
2014-Jul-25 03:30N 35°57' E 140°42'0 0.0
2014-Jul-25 02:33N 35°57' E 140°42'0 0.0
2014-Jul-25 01:19N 35°57' E 140°42'0 0.0
2014-Jul-25 00:17N 35°57' E 140°42'0 0.0
2014-Jul-24 23:33N 35°57' E 140°42'0 0.0
2014-Jul-24 22:33N 35°57' E 140°42'0 0.0
2014-Jul-24 21:33N 35°57' E 140°42'0 0.0
2014-Jul-24 20:33N 35°57' E 140°42'0 0.0
2014-Jul-24 19:33N 35°57' E 140°42'0 0.0
2014-Jul-24 18:33N 35°57' E 140°42'0 0.0
2014-Jul-24 17:33N 35°57' E 140°42'0 0.0
2014-Jul-24 16:33N 35°57' E 140°42'0 0.0
2014-Jul-24 15:33N 35°57' E 140°42'0 0.0
2014-Jul-24 14:33N 35°57' E 140°42'5 5.1
2014-Jul-24 13:32N 35°54' E 140°47'1512.8
2014-Jul-24 12:21N 35°40' E 140°54'1013.1
2014-Jul-24 11:33N 35°31' E 140°47'1612.9
2014-Jul-24 10:17N 35°18' E 140°35'1413.3
2014-Jul-24 09:13N 35°07' E 140°24'1015.4
2014-Jul-24 08:33N 35°01' E 140°14'1614.5
2014-Jul-24 07:28N 34°53' E 139°58'1313.9
2014-Jul-24 06:32N 34°50' E 139°42'20 0.8
2014-Jul-23 06:12N 34°58' E 139°20'711.8
2014-Jul-23 05:34N 35°02' E 139°28'1212.4
2014-Jul-23 04:34N 35°07' E 139°42'1110.8
2014-Jul-23 03:34N 35°18' E 139°44'1110.5
2014-Jul-23 02:34N 35°28' E 139°49'1110.9
2014-Jul-23 01:33N 35°30' E 140°02'0 0.1
2014-Jul-23 00:33N 35°30' E 140°02'0 0.0
2014-Jul-22 23:33N 35°30' E 140°02'3 2.8
2014-Jul-22 22:34N 35°31' E 139°59'0 0.0
2014-Jul-22 21:33N 35°31' E 139°59'0 0.0
2014-Jul-22 20:34N 35°31' E 139°59'0 0.0
2014-Jul-22 19:34N 35°31' E 139°59'0 0.0
2014-Jul-22 18:34N 35°31' E 139°59'0 0.0
2014-Jul-22 17:34N 35°31' E 139°59'0 0.0
2014-Jul-22 16:33N 35°31' E 139°59'0 0.0
2014-Jul-22 15:34N 35°31' E 139°59'0 0.0
2014-Jul-22 14:34N 35°31' E 139°59'8 8.0
2014-Jul-22 13:33N 35°27' E 139°50'1211.9
2014-Jul-22 12:33N 35°16' E 139°47'1313.2
2014-Jul-22 11:33N 35°03' E 139°42'1515.3
2014-Jul-22 10:33N 34°54' E 139°27'40 7.4
2014-Jul-22 05:07N 35°09' E 138°42'  

Dump ship's entire track history